Time,TemperatureF,DewpointF,PressureIn,WindDirection,WindDirectionDegrees,WindSpeedMPH,WindSpeedGustMPH,Humidity,HourlyPrecipIn,Conditions,Clouds,dailyrainin,SoftwareType,DateUTC
2013-07-11 00:22:00,68.0,53.0,-100.00,ESE,102,5.0,7.0,58,-99.99,,,-99.99,,2013-07-11 07:22:00,
2013-07-11 00:45:00,68.0,51.0,-100.00,SE,137,5.0,7.0,55,-99.99,,,-99.99,,2013-07-11 07:45:00,
2013-07-11 01:22:00,68.0,51.0,-100.00,SE,142,4.0,7.0,54,-99.99,,,-99.99,,2013-07-11 08:22:00,
2013-07-11 01:42:00,68.0,50.0,-100.00,SE,131,4.0,5.0,53,-99.99,,,-99.99,,2013-07-11 08:42:00,
2013-07-11 01:53:00,68.0,50.0,-100.00,SE,131,4.0,5.0,53,-99.99,,,-99.99,,2013-07-11 08:53:00,
2013-07-11 02:02:00,68.0,51.0,-100.00,ESE,121,3.0,5.0,55,-99.99,,,-99.99,,2013-07-11 09:02:00,
2013-07-11 02:21:00,68.0,52.0,-100.00,SE,134,5.0,8.0,56,-99.99,,,-99.99,,2013-07-11 09:21:00,
2013-07-11 02:43:00,68.0,52.0,-100.00,SSE,154,4.0,6.0,56,-99.99,,,-99.99,,2013-07-11 09:43:00,
2013-07-11 02:50:00,68.0,51.0,-100.00,SE,145,3.0,5.0,54,-99.99,,,-99.99,,2013-07-11 09:50:00,
2013-07-11 02:53:00,68.0,51.0,-100.00,SE,133,6.0,8.0,55,-99.99,,,-99.99,,2013-07-11 09:53:00,
2013-07-11 03:01:00,68.0,51.0,-100.00,SE,135,5.0,8.0,54,-99.99,,,-99.99,,2013-07-11 10:01:00,
2013-07-11 03:21:00,68.0,51.0,-100.00,SE,145,3.0,5.0,54,-99.99,,,-99.99,,2013-07-11 10:21:00,
2013-07-11 03:33:00,68.0,51.0,-100.00,SE,145,3.0,5.0,54,-99.99,,,-99.99,,2013-07-11 10:33:00,
2013-07-11 03:42:00,68.0,51.0,-100.00,SE,145,3.0,5.0,54,-99.99,,,-99.99,,2013-07-11 10:42:00,
2013-07-11 04:43:00,69.0,50.0,-100.00,SSE,148,3.0,5.0,51,-99.99,,,-99.99,,2013-07-11 11:43:00,
2013-07-11 05:12:00,68.0,51.0,-100.00,West,280,5.0,9.0,55,-99.99,,,-99.99,,2013-07-11 12:12:00,
2013-07-11 05:22:00,67.0,53.0,-100.00,West,276,6.0,9.0,60,-99.99,,,-99.99,,2013-07-11 12:22:00,
2013-07-11 05:54:00,66.0,53.0,-100.00,ESE,113,4.0,6.0,64,-99.99,,,-99.99,,2013-07-11 12:54:00,
2013-07-11 06:11:00,66.0,53.0,-100.00,SSE,152,4.0,11.0,62,-99.99,,,-99.99,,2013-07-11 13:11:00,
2013-07-11 06:22:00,66.0,53.0,-100.00,SE,144,5.0,12.0,62,-99.99,,,-99.99,,2013-07-11 13:22:00,
2013-07-11 06:44:00,66.0,53.0,-100.00,SE,141,1.0,3.0,64,-99.99,,,-99.99,,2013-07-11 13:44:00,
2013-07-11 06:53:00,66.0,53.0,-100.00,SE,141,1.0,3.0,64,-99.99,,,-99.99,,2013-07-11 13:53:00,
2013-07-11 07:12:00,66.0,54.0,-100.00,ESE,115,3.0,4.0,66,-99.99,,,-99.99,,2013-07-11 14:12:00,
2013-07-11 07:44:00,67.0,55.0,-100.00,SE,126,3.0,5.0,65,-99.99,,,-99.99,,2013-07-11 14:44:00,
2013-07-11 08:12:00,67.0,55.0,-100.00,SSW,200,2.0,3.0,65,-99.99,,,-99.99,,2013-07-11 15:12:00,
2013-07-11 08:22:00,67.0,55.0,-100.00,SSW,200,2.0,3.0,65,-99.99,,,-99.99,,2013-07-11 15:22:00,
2013-07-11 08:44:00,68.0,55.0,-100.00,SE,146,1.0,3.0,64,-99.99,,,-99.99,,2013-07-11 15:44:00,
2013-07-11 09:22:00,69.0,56.0,-100.00,West,276,3.0,6.0,63,-99.99,,,-99.99,,2013-07-11 16:22:00,
2013-07-11 09:44:00,71.0,56.0,-100.00,WNW,297,4.0,7.0,59,-99.99,,,-99.99,,2013-07-11 16:44:00,
2013-07-11 10:22:00,68.0,56.0,-100.00,West,269,4.0,6.0,66,-99.99,,,-99.99,,2013-07-11 17:22:00,
2013-07-11 10:44:00,70.0,56.0,-100.00,NW,322,5.0,7.0,62,-99.99,,,-99.99,,2013-07-11 17:44:00,
2013-07-11 10:52:00,70.0,56.0,-100.00,NW,322,5.0,7.0,62,-99.99,,,-99.99,,2013-07-11 17:52:00,
2013-07-11 11:03:00,69.0,58.0,-100.00,WNW,289,5.0,8.0,67,-99.99,,,-99.99,,2013-07-11 18:03:00,
2013-07-11 11:22:00,69.0,57.0,-100.00,WNW,296,4.0,7.0,66,-99.99,,,-99.99,,2013-07-11 18:22:00,
2013-07-11 12:12:00,72.0,56.0,-100.00,NW,309,5.0,7.0,58,-99.99,,,-99.99,,2013-07-11 19:12:00,
2013-07-11 12:22:00,72.0,56.0,-100.00,WNW,293,6.0,9.0,58,-99.99,,,-99.99,,2013-07-11 19:22:00,
2013-07-11 12:53:00,72.0,57.0,-100.00,NW,319,5.0,8.0,59,-99.99,,,-99.99,,2013-07-11 19:53:00,
2013-07-11 13:12:00,72.0,56.0,-100.00,WNW,296,4.0,7.0,58,-99.99,,,-99.99,,2013-07-11 20:12:00,
2013-07-11 13:22:00,72.0,56.0,-100.00,WNW,303,3.0,6.0,57,-99.99,,,-99.99,,2013-07-11 20:22:00,
2013-07-11 13:44:00,73.0,56.0,-100.00,WNW,301,7.0,11.0,56,-99.99,,,-99.99,,2013-07-11 20:44:00,
2013-07-11 13:52:00,73.0,56.0,-100.00,WNW,301,7.0,11.0,56,-99.99,,,-99.99,,2013-07-11 20:52:00,
2013-07-11 14:12:00,73.0,57.0,-100.00,WNW,292,6.0,10.0,57,-99.99,,,-99.99,,2013-07-11 21:12:00,
2013-07-11 14:22:00,73.0,57.0,-100.00,WNW,302,6.0,10.0,58,-99.99,,,-99.99,,2013-07-11 21:22:00,
2013-07-11 14:33:00,73.0,57.0,-100.00,WNW,302,6.0,10.0,58,-99.99,,,-99.99,,2013-07-11 21:33:00,
2013-07-11 14:53:00,72.0,56.0,-100.00,WNW,282,4.0,6.0,58,-99.99,,,-99.99,,2013-07-11 21:53:00,
2013-07-11 15:02:00,73.0,57.0,-100.00,WNW,302,3.0,7.0,57,-99.99,,,-99.99,,2013-07-11 22:02:00,
2013-07-11 15:22:00,73.0,57.0,-100.00,NW,315,4.0,8.0,57,-99.99,,,-99.99,,2013-07-11 22:22:00,
2013-07-11 15:44:00,73.0,59.0,-100.00,WNW,296,9.0,11.0,61,-99.99,,,-99.99,,2013-07-11 22:44:00,
2013-07-11 15:53:00,73.0,59.0,-100.00,WNW,296,9.0,11.0,61,-99.99,,,-99.99,,2013-07-11 22:53:00,
2013-07-11 16:11:00,73.0,59.0,-100.00,NW,312,8.0,13.0,62,-99.99,,,-99.99,,2013-07-11 23:11:00,
2013-07-11 16:23:00,73.0,59.0,-100.00,NW,308,7.0,10.0,61,-99.99,,,-99.99,,2013-07-11 23:23:00,
2013-07-11 16:44:00,72.0,60.0,-100.00,NW,307,8.0,13.0,65,-99.99,,,-99.99,,2013-07-11 23:44:00,
2013-07-11 17:02:00,73.0,61.0,-100.00,WNW,293,7.0,12.0,65,-99.99,,,-99.99,,2013-07-12 00:02:00,
2013-07-11 17:23:00,73.0,60.0,-100.00,NW,307,9.0,13.0,63,-99.99,,,-99.99,,2013-07-12 00:23:00,
2013-07-11 17:53:00,73.0,60.0,-100.00,WNW,299,8.0,12.0,64,-99.99,,,-99.99,,2013-07-12 00:53:00,
2013-07-11 18:12:00,74.0,61.0,-100.00,WNW,294,6.0,11.0,63,-99.99,,,-99.99,,2013-07-12 01:12:00,
2013-07-11 18:23:00,74.0,61.0,-100.00,NW,308,7.0,13.0,63,-99.99,,,-99.99,,2013-07-12 01:23:00,
2013-07-11 18:44:00,73.0,60.0,-100.00,WNW,285,6.0,11.0,64,-99.99,,,-99.99,,2013-07-12 01:44:00,
2013-07-11 18:53:00,74.0,60.0,-100.00,WNW,298,6.0,10.0,62,-99.99,,,-99.99,,2013-07-12 01:53:00,
2013-07-11 19:12:00,74.0,60.0,-100.00,WNW,296,7.0,11.0,61,-99.99,,,-99.99,,2013-07-12 02:12:00,
2013-07-11 19:23:00,74.0,61.0,-100.00,WNW,295,7.0,10.0,63,-99.99,,,-99.99,,2013-07-12 02:23:00,
2013-07-11 19:33:00,73.0,60.0,-100.00,WNW,298,6.0,9.0,64,-99.99,,,-99.99,,2013-07-12 02:33:00,
2013-07-11 19:43:00,73.0,60.0,-100.00,WNW,298,6.0,9.0,64,-99.99,,,-99.99,,2013-07-12 02:43:00,
2013-07-11 20:13:00,71.0,60.0,-100.00,WNW,291,6.0,7.0,68,-99.99,,,-99.99,,2013-07-12 03:13:00,
2013-07-11 21:11:00,66.0,59.0,-100.00,West,278,1.0,4.0,78,-99.99,,,-99.99,,2013-07-12 04:11:00,
2013-07-11 21:21:00,67.0,60.0,-100.00,NE,44,2.0,3.0,78,-99.99,,,-99.99,,2013-07-12 04:21:00,
2013-07-11 21:43:00,67.0,60.0,-100.00,East,91,4.0,5.0,77,-99.99,,,-99.99,,2013-07-12 04:43:00,
2013-07-11 22:11:00,66.0,59.0,-100.00,SE,138,4.0,5.0,77,-99.99,,,-99.99,,2013-07-12 05:11:00,
2013-07-11 22:22:00,66.0,59.0,-100.00,SE,138,4.0,5.0,77,-99.99,,,-99.99,,2013-07-12 05:22:00,
2013-07-11 22:53:00,67.0,59.0,-100.00,SE,140,6.0,8.0,76,-99.99,,,-99.99,,2013-07-12 05:53:00,
2013-07-11 23:11:00,67.0,59.0,-100.00,SE,140,3.0,5.0,76,-99.99,,,-99.99,,2013-07-12 06:11:00,
2013-07-11 23:22:00,67.0,60.0,-100.00,SSE,164,2.0,3.0,77,-99.99,,,-99.99,,2013-07-12 06:22:00,
2013-07-11 23:52:00,64.0,59.0,-100.00,SE,137,3.0,4.0,83,-99.99,,,-99.99,,2013-07-12 06:52:00,